Time;durP1;ratioP1;P1;durP2;ratioP2;P2;SDS_P1;SDS_P2;PMS_P1;PMS_P2;Temp;Humidity;BMP_temperature;BMP_pressure;BME280_temperature;BME280_humidity;BME280_pressure;Samples;Min_cycle;Max_cycle;Signal;HPM_P1;HPM_P2
2021/03/24 00:00:38;;;;;;;19.92;9.18;;;;;;;21.47;24.83;98621.31;5109969;28;20544;-85
2021/03/24 00:03:05;;;;;;;15.15;7.65;;;;;;;22.90;22.94;98627.34;5099578;28;20072;-85
2021/03/24 00:05:37;;;;;;;15.98;8.05;;;;;;;23.68;21.78;98624.59;5105171;28;20092;-84
2021/03/24 00:08:06;;;;;;;16.55;8.43;;;;;;;24.14;21.20;98629.66;5102720;28;20479;-85
2021/03/24 00:10:33;;;;;;;16.15;9.07;;;;;;;24.40;20.91;98622.47;5101271;28;20055;-86
2021/03/24 00:13:00;;;;;;;15.90;8.10;;;;;;;22.98;22.11;98620.50;5098699;28;20036;-84
2021/03/24 00:15:27;;;;;;;16.52;8.32;;;;;;;23.50;22.14;98614.78;5091068;28;20055;-85
2021/03/24 00:17:53;;;;;;;17.27;8.23;;;;;;;23.55;21.84;98620.72;5103451;28;20050;-85
2021/03/24 00:20:25;;;;;;;15.70;8.85;;;;;;;23.67;21.59;98613.78;5093378;28;20024;-85
2021/03/24 00:22:51;;;;;;;19.50;8.80;;;;;;;23.77;21.65;98616.47;5102879;28;20089;-85
2021/03/24 00:25:18;;;;;;;15.10;8.10;;;;;;;23.42;21.86;98613.28;5116013;28;20433;-85
2021/03/24 00:27:50;;;;;;;18.30;9.23;;;;;;;23.38;21.90;98616.91;5083197;28;20024;-84
2021/03/24 00:30:21;;;;;;;18.38;8.07;;;;;;;23.49;21.67;98613.19;5085876;28;20032;-84
2021/03/24 00:32:48;;;;;;;11.93;6.30;;;;;;;22.62;22.72;98624.78;5100764;28;20114;-85
2021/03/24 00:35:14;;;;;;;16.27;8.10;;;;;;;22.42;23.20;98621.69;5107360;28;20020;-84
2021/03/24 00:37:40;;;;;;;10.65;6.13;;;;;;;22.00;23.67;98617.16;5097543;28;20033;-84
2021/03/24 00:40:10;;;;;;;11.20;6.65;;;;;;;20.53;25.70;98621.78;5093140;28;20082;-85
2021/03/24 00:42:36;;;;;;;18.80;10.13;;;;;;;19.57;26.75;98627.41;5073646;28;20107;-85
2021/03/24 00:45:04;;;;;;;16.17;7.57;;;;;;;19.26;26.86;98626.03;5081185;28;20028;-85
2021/03/24 00:47:30;;;;;;;15.05;8.20;;;;;;;19.42;27.00;98620.19;5091176;28;20032;-85
2021/03/24 00:49:56;;;;;;;10.85;6.53;;;;;;;19.79;26.76;98623.56;5094425;28;20034;-85
2021/03/24 00:52:22;;;;;;;12.25;6.88;;;;;;;21.78;24.20;98614.81;5087766;28;20067;-85
2021/03/24 00:54:48;;;;;;;12.98;8.52;;;;;;;19.83;26.00;98622.38;5105412;28;20032;-85
2021/03/24 00:57:14;;;;;;;13.40;6.90;;;;;;;21.52;24.19;98607.72;5110714;28;20108;-85
2021/03/24 00:59:41;;;;;;;10.45;6.20;;;;;;;21.42;23.99;98621.72;5101038;28;20036;-85
2021/03/24 01:02:07;;;;;;;11.27;6.68;;;;;;;19.89;25.93;98626.38;5093091;28;20043;-85
2021/03/24 01:04:33;;;;;;;11.30;6.07;;;;;;;20.29;26.26;98619.75;5087407;28;20097;-85
2021/03/24 01:06:59;;;;;;;12.50;6.82;;;;;;;18.63;27.62;98616.03;5103010;28;20046;-85
2021/03/24 01:09:25;;;;;;;9.88;6.60;;;;;;;17.44;29.79;98626.56;5104355;28;20395;-85
2021/03/24 01:11:51;;;;;;;11.60;7.07;;;;;;;19.17;27.71;98623.59;5095489;28;20572;-86
2021/03/24 01:14:17;;;;;;;10.15;6.80;;;;;;;19.51;26.83;98621.41;5106125;28;20032;-85
2021/03/24 01:16:44;;;;;;;11.40;6.43;;;;;;;20.04;25.99;98627.22;5102249;28;20032;-85
2021/03/24 01:19:10;;;;;;;9.15;5.30;;;;;;;20.54;25.70;98628.13;5097821;28;20027;-86
2021/03/24 01:21:36;;;;;;;12.40;7.80;;;;;;;18.77;27.55;98636.78;5106985;28;20024;-86
2021/03/24 01:24:02;;;;;;;12.90;6.90;;;;;;;19.11;26.91;98639.03;5090084;28;20039;-86
2021/03/24 01:26:28;;;;;;;8.88;5.72;;;;;;;21.62;24.16;98622.84;5098542;28;20030;-86
2021/03/24 01:29:00;;;;;;;9.77;5.75;;;;;;;21.13;24.64;98630.16;5084793;28;20043;-85
2021/03/24 01:31:30;;;;;;;9.60;5.10;;;;;;;21.27;24.31;98630.13;5087953;28;20498;-85
2021/03/24 01:33:58;;;;;;;6.78;5.22;;;;;;;20.62;24.89;98629.75;5082837;28;20040;-85
2021/03/24 01:36:25;;;;;;;8.38;5.25;;;;;;;20.47;25.47;98642.06;5097781;28;20024;-85
2021/03/24 01:38:52;;;;;;;12.50;5.90;;;;;;;21.32;24.06;98632.53;5093948;28;20035;-85
2021/03/24 01:41:19;;;;;;;8.88;6.18;;;;;;;20.31;25.27;98636.88;5077083;28;20396;-84
2021/03/24 01:43:45;;;;;;;5.85;3.78;;;;;;;21.10;24.65;98627.34;5087528;28;20048;-85
2021/03/24 01:46:18;;;;;;;7.50;5.30;;;;;;;19.97;26.42;98643.91;5101050;28;20031;-85
2021/03/24 01:49:03;;;;;;;9.90;6.50;;;;;;;18.83;27.43;98638.06;5097588;28;20028;-85
2021/03/24 01:51:55;;;;;;;8.10;5.80;;;;;;;19.82;26.40;98631.91;5098113;28;20110;-85
2021/03/24 01:54:26;;;;;;;8.48;5.28;;;;;;;18.50;28.65;98633.38;5089869;28;20027;-85
2021/03/24 01:57:09;;;;;;;9.57;4.88;;;;;;;18.45;28.05;98640.09;5099760;28;20043;-84
2021/03/24 01:59:35;;;;;;;7.70;5.22;;;;;;;18.67;28.02;98632.72;5091917;28;20514;-85
2021/03/24 02:02:06;;;;;;;8.57;4.93;;;;;;;19.07;27.68;98640.19;5096719;28;20032;-85
2021/03/24 02:04:32;;;;;;;6.57;4.38;;;;;;;19.57;26.74;98641.34;5102013;28;20030;-85
2021/03/24 02:07:07;;;;;;;5.55;4.18;;;;;;;19.89;26.25;98642.28;5100323;28;20107;-85
2021/03/24 02:09:56;;;;;;;6.93;4.45;;;;;;;19.15;27.51;98639.06;5077491;28;20096;-85
2021/03/24 02:12:38;;;;;;;7.28;4.72;;;;;;;18.87;27.61;98650.00;5091808;28;20052;-85
2021/03/24 02:15:17;;;;;;;8.45;4.68;;;;;;;19.69;26.78;98650.19;5085229;28;20032;-85
2021/03/24 02:17:45;;;;;;;10.15;5.72;;;;;;;20.12;25.66;98650.34;5090948;28;20483;-85
2021/03/24 02:20:34;;;;;;;9.35;6.40;;;;;;;18.31;28.10;98653.81;5090895;28;20146;-85
2021/03/24 02:23:28;;;;;;;9.43;4.85;;;;;;;19.84;26.11;98651.81;5079392;28;20028;-84
2021/03/24 02:26:07;;;;;;;11.77;5.32;;;;;;;20.31;25.69;98650.00;5084003;28;20097;-85
2021/03/24 02:28:36;;;;;;;7.78;5.30;;;;;;;20.27;25.71;98649.22;5068630;28;20170;-85
2021/03/24 02:31:03;;;;;;;8.63;5.30;;;;;;;19.65;26.31;98646.56;5092280;28;20028;-84
2021/03/24 02:33:34;;;;;;;6.78;4.47;;;;;;;18.02;28.48;98654.69;5091125;28;20502;-84
2021/03/24 02:36:08;;;;;;;7.07;5.53;;;;;;;18.29;28.05;98656.19;5087325;28;20441;-84
2021/03/24 02:38:38;;;;;;;8.38;4.97;;;;;;;19.33;27.56;98649.13;5079942;28;20082;-84
2021/03/24 02:41:05;;;;;;;9.98;6.40;;;;;;;18.85;27.86;98652.38;5091419;28;20039;-85
2021/03/24 02:43:34;;;;;;;8.32;6.13;;;;;;;19.58;26.53;98642.97;5091517;28;20392;-85
2021/03/24 02:46:03;;;;;;;9.07;5.65;;;;;;;20.62;25.23;98636.13;5091346;28;20028;-85
2021/03/24 02:48:33;;;;;;;11.50;7.18;;;;;;;20.52;25.21;98641.69;5092195;28;20083;-85
2021/03/24 02:51:04;;;;;;;7.40;5.43;;;;;;;21.02;24.57;98648.09;5091832;28;20032;-85
2021/03/24 02:53:32;;;;;;;8.60;5.55;;;;;;;21.32;24.20;98640.91;5092785;28;20039;-85
2021/03/24 02:56:01;;;;;;;5.60;4.57;;;;;;;20.60;25.02;98657.25;5091026;28;20025;-85
2021/03/24 02:58:27;;;;;;;8.30;5.18;;;;;;;21.58;23.81;98656.41;5058397;28;20041;-85
2021/03/24 03:00:54;;;;;;;7.57;5.57;;;;;;;20.69;24.81;98652.06;5091368;28;20040;-84
2021/03/24 03:03:27;;;;;;;7.35;5.40;;;;;;;21.97;23.48;98647.91;5087816;28;20032;-85
2021/03/24 03:05:58;;;;;;;9.88;5.53;;;;;;;22.23;23.10;98654.97;5090848;28;20157;-86
2021/03/24 03:08:55;;;;;;;8.10;4.65;;;;;;;22.28;22.78;98651.75;5077143;28;20391;-86
2021/03/24 03:11:39;;;;;;;12.20;5.35;;;;;;;22.63;22.38;98652.38;5094512;28;20040;-85
2021/03/24 03:14:07;;;;;;;12.95;5.53;;;;;;;23.02;21.90;98651.25;5104793;28;20032;-85
2021/03/24 03:16:40;;;;;;;12.18;7.10;;;;;;;22.96;21.78;98650.13;5083601;28;20031;-86
2021/03/24 03:19:08;;;;;;;10.07;5.47;;;;;;;23.45;21.31;98657.28;5104098;28;20400;-85
2021/03/24 03:21:51;;;;;;;10.43;5.35;;;;;;;23.93;20.73;98653.13;5095473;28;20035;-85
2021/03/24 03:24:21;;;;;;;13.00;6.22;;;;;;;23.64;20.92;98654.66;5077831;28;20039;-85
2021/03/24 03:26:50;;;;;;;10.43;7.47;;;;;;;23.10;21.55;98652.78;5104623;28;20115;-84
2021/03/24 03:29:20;;;;;;;13.63;7.13;;;;;;;23.01;21.91;98652.47;5100787;28;20403;-84
2021/03/24 03:31:49;;;;;;;9.85;6.47;;;;;;;23.36;21.25;98658.56;5102137;28;20391;-85
2021/03/24 03:34:18;;;;;;;10.60;6.75;;;;;;;22.94;21.93;98658.13;5107053;28;20027;-85
2021/03/24 03:36:48;;;;;;;11.15;6.70;;;;;;;23.65;21.03;98655.47;5109563;28;20028;-85
2021/03/24 03:39:21;;;;;;;10.98;6.72;;;;;;;23.64;21.12;98653.88;5110437;28;20036;-84
2021/03/24 03:41:48;;;;;;;10.90;7.18;;;;;;;23.45;21.28;98660.09;5093191;28;20084;-84
2021/03/24 03:44:16;;;;;;;15.25;8.73;;;;;;;23.35;21.39;98651.38;5093656;28;20063;-85
2021/03/24 03:46:49;;;;;;;13.18;7.95;;;;;;;23.02;21.76;98643.66;5093111;28;20024;-84
2021/03/24 03:49:17;;;;;;;13.38;8.38;;;;;;;23.21;21.51;98653.47;5092314;28;20024;-85
2021/03/24 03:51:52;;;;;;;11.98;7.70;;;;;;;23.21;21.53;98653.47;5097673;28;20118;-84
2021/03/24 03:54:26;;;;;;;13.52;8.15;;;;;;;22.91;21.82;98653.34;5085404;28;20025;-84
2021/03/24 03:57:15;;;;;;;14.55;7.88;;;;;;;22.89;21.91;98647.38;5095723;28;20044;-84
2021/03/24 03:59:58;;;;;;;14.10;8.57;;;;;;;23.54;21.18;98649.19;5077154;28;20028;-84
2021/03/24 04:02:30;;;;;;;12.70;7.03;;;;;;;23.96;20.66;98649.50;5086204;28;20031;-84
2021/03/24 04:05:03;;;;;;;13.52;7.68;;;;;;;23.98;20.75;98661.09;5092876;28;20019;-84
2021/03/24 04:07:37;;;;;;;12.52;7.95;;;;;;;24.05;20.54;98661.00;5102124;28;20434;-85
2021/03/24 04:10:05;;;;;;;13.10;7.93;;;;;;;24.49;20.08;98662.03;5108626;28;20042;-84
2021/03/24 04:12:34;;;;;;;13.65;8.18;;;;;;;24.58;19.89;98660.28;5093856;28;20032;-84
2021/03/24 04:15:04;;;;;;;16.73;8.35;;;;;;;23.63;20.87;98658.69;5094132;28;20032;-84
2021/03/24 04:17:38;;;;;;;15.65;8.05;;;;;;;23.66;21.02;98663.47;5091971;28;20063;-84
2021/03/24 04:20:06;;;;;;;16.13;8.65;;;;;;;23.75;20.76;98663.78;5091134;28;20454;-84
2021/03/24 04:22:33;;;;;;;21.80;9.70;;;;;;;23.15;21.51;98657.94;5090274;28;20024;-84
2021/03/24 04:25:03;;;;;;;14.05;8.65;;;;;;;23.00;21.79;98664.88;5093425;28;20024;-84
2021/03/24 04:27:33;;;;;;;11.90;7.68;;;;;;;23.27;21.51;98665.81;5094050;28;20131;-84
2021/03/24 04:30:07;;;;;;;12.60;7.78;;;;;;;23.73;20.87;98662.59;5093209;28;20036;-85
2021/03/24 04:32:33;;;;;;;16.42;9.57;;;;;;;23.54;20.88;98664.00;5093914;28;20054;-85
2021/03/24 04:35:00;;;;;;;16.30;9.80;;;;;;;23.65;20.84;98666.69;5077995;28;20039;-85
2021/03/24 04:37:34;;;;;;;18.27;9.18;;;;;;;23.34;21.06;98668.56;5093919;28;20524;-84
2021/03/24 04:40:14;;;;;;;14.82;8.82;;;;;;;23.03;21.47;98675.25;5093920;28;20093;-85
2021/03/24 04:42:47;;;;;;;14.82;8.45;;;;;;;23.27;21.25;98672.22;5089846;28;20107;-84
2021/03/24 04:45:44;;;;;;;15.20;9.20;;;;;;;23.22;21.42;98677.50;5092862;28;20020;-85
2021/03/24 04:48:18;;;;;;;16.25;10.45;;;;;;;23.21;21.27;98685.09;5083148;28;20119;-84
2021/03/24 04:51:33;;;;;;;16.45;9.93;;;;;;;22.96;21.79;98686.53;5087648;28;20031;-84
2021/03/24 04:54:12;;;;;;;13.98;8.82;;;;;;;23.24;21.29;98695.47;5085873;28;20400;-84
2021/03/24 04:56:41;;;;;;;14.90;8.63;;;;;;;22.99;21.50;98691.28;5094253;28;20104;-84
2021/03/24 04:59:10;;;;;;;19.40;10.77;;;;;;;23.49;21.17;98694.47;5093925;28;20032;-84
2021/03/24 05:01:41;;;;;;;12.85;8.52;;;;;;;;;;5092582;28;20048;-84
2021/03/24 05:04:12;;;;;;;17.70;10.18;;;;;;;23.46;21.01;98686.88;5093357;28;20032;-84
2021/03/24 05:06:55;;;;;;;17.05;9.45;;;;;;;22.36;22.24;98686.88;5080754;28;20028;-84
2021/03/24 05:09:21;;;;;;;16.77;9.00;;;;;;;22.69;21.81;98692.69;5094144;28;20036;-85
2021/03/24 05:12:03;;;;;;;19.67;10.23;;;;;;;22.98;21.76;98696.09;5093285;28;20040;-85
2021/03/24 05:14:43;;;;;;;21.23;11.18;;;;;;;22.60;22.13;98697.97;5092486;28;20032;-85
2021/03/24 05:17:36;;;;;;;19.33;10.43;;;;;;;22.84;21.80;98701.00;5090549;28;20036;-85
2021/03/24 05:20:41;;;;;;;17.20;10.80;;;;;;;22.31;22.44;98695.72;5084354;28;20052;-85
2021/03/24 05:23:13;;;;;;;12.30;7.75;;;;;;;22.51;22.28;98697.59;5051582;28;20062;-85
2021/03/24 05:25:42;;;;;;;20.90;11.88;;;;;;;22.25;22.42;98694.53;5090913;28;20052;-86
2021/03/24 05:28:23;;;;;;;16.02;10.05;;;;;;;22.59;22.30;98693.53;5086808;28;20117;-85
2021/03/24 05:30:59;;;;;;;;;;;;;;;21.99;22.94;98693.84;5066002;28;20112;-85
2021/03/24 05:33:29;;;;;;;18.27;10.07;;;;;;;22.46;22.45;98695.22;5080986;28;19916;-86
2021/03/24 05:35:58;;;;;;;20.77;11.13;;;;;;;22.75;21.96;98700.66;5082826;28;20435;-85
2021/03/24 05:38:39;;;;;;;18.08;10.00;;;;;;;22.90;21.87;98707.75;5075530;28;20025;-86
2021/03/24 05:41:11;;;;;;;18.17;9.50;;;;;;;22.88;21.87;98699.78;5089260;28;20036;-86
2021/03/24 05:43:40;;;;;;;19.27;11.05;;;;;;;22.62;22.06;98703.94;5084430;28;20476;-87
2021/03/24 05:46:19;;;;;;;15.68;9.70;;;;;;;23.01;21.71;98698.06;5081898;28;20089;-86
2021/03/24 05:48:53;;;;;;;16.27;9.77;;;;;;;23.21;21.53;98698.31;5077447;28;20055;-86
2021/03/24 05:51:44;;;;;;;14.70;9.60;;;;;;;23.29;21.24;98702.66;5083873;28;20036;-86
2021/03/24 05:54:19;;;;;;;;;;;;;;;22.79;22.06;98702.22;5087294;28;20510;-86
2021/03/24 05:57:02;;;;;;;15.25;8.93;;;;;;;22.72;22.06;98702.28;5082674;28;19916;-86
2021/03/24 05:59:54;;;;;;;19.25;10.80;;;;;;;22.45;22.34;98707.59;5077963;28;20028;-87
2021/03/24 06:02:37;;;;;;;20.30;10.95;;;;;;;23.38;21.24;98706.56;5085740;28;20391;-86
2021/03/24 06:05:12;;;;;;;16.15;9.95;;;;;;;23.65;21.00;98703.13;5083380;28;20028;-86
2021/03/24 06:08:30;;;;;;;18.23;10.30;;;;;;;23.89;20.55;98711.28;5078863;28;20525;-87
2021/03/24 06:11:22;;;;;;;16.98;9.70;;;;;;;23.95;20.42;98715.22;5028089;28;20142;-87
2021/03/24 06:14:34;;;;;;;17.60;10.63;;;;;;;23.78;20.64;98716.19;5056871;28;20068;-87
2021/03/24 06:17:18;;;;;;;24.85;13.23;;;;;;;23.13;21.31;98711.56;5039721;28;20804;-87
2021/03/24 06:19:57;;;;;;;16.90;9.23;;;;;;;23.28;21.26;98715.88;5054968;28;20036;-87
2021/03/24 06:22:47;;;;;;;16.70;11.00;;;;;;;23.50;21.10;98718.50;5063785;28;20053;-86
2021/03/24 06:25:33;;;;;;;19.60;11.20;;;;;;;23.44;21.10;98712.53;5062050;28;20397;-86
2021/03/24 06:28:29;;;;;;;17.30;10.57;;;;;;;22.90;21.79;98724.56;5045594;28;20049;-85
2021/03/24 06:31:33;;;;;;;14.30;9.10;;;;;;;22.72;22.04;98730.28;5036289;28;20073;-85
2021/03/24 06:34:36;;;;;;;14.73;9.35;;;;;;;23.35;21.30;98724.25;5050583;28;20037;-86
2021/03/24 06:37:14;;;;;;;13.75;9.18;;;;;;;23.61;20.96;98722.78;5064953;28;20024;-86
2021/03/24 06:39:58;;;;;;;18.92;11.38;;;;;;;23.03;21.51;98722.88;5060709;28;20032;-85
2021/03/24 06:42:45;;;;;;;19.67;10.07;;;;;;;23.06;21.69;98742.44;5051873;28;20504;-86
2021/03/24 06:45:38;;;;;;;16.58;9.50;;;;;;;22.99;21.76;98744.47;5064493;28;20063;-88
2021/03/24 06:48:26;;;;;;;16.40;10.07;;;;;;;23.61;21.08;98734.00;5060244;28;20028;-86
2021/03/24 06:51:09;;;;;;;16.48;9.52;;;;;;;23.81;20.71;98745.41;5070064;28;20056;-86
2021/03/24 06:54:03;;;;;;;15.48;8.95;;;;;;;23.41;21.03;98744.19;5068831;28;20044;-86
2021/03/24 06:56:47;;;;;;;13.85;8.40;;;;;;;23.69;20.86;98743.94;5056653;28;20041;-86
2021/03/24 06:59:58;;;;;;;15.90;9.30;;;;;;;22.51;22.21;98747.16;5064457;28;20043;-87
2021/03/24 07:02:48;;;;;;;18.98;9.20;;;;;;;24.10;20.50;98754.34;5069191;28;20041;-87
2021/03/24 07:05:44;;;;;;;16.30;10.35;;;;;;;24.74;20.05;98749.50;5055873;28;20067;-87
2021/03/24 07:08:42;;;;;;;16.77;9.70;;;;;;;24.56;20.06;98768.63;5052470;28;20123;-87
2021/03/24 07:11:27;;;;;;;15.18;9.20;;;;;;;23.94;20.62;98758.47;5057977;28;20041;-87
2021/03/24 07:14:30;;;;;;;14.80;8.98;;;;;;;23.85;20.89;98763.03;5087777;28;20036;-87
2021/03/24 07:17:25;;;;;;;17.05;9.75;;;;;;;24.22;20.43;98756.63;5091358;28;20032;-87
2021/03/24 07:20:20;;;;;;;12.38;7.85;;;;;;;21.66;23.17;98771.75;5060986;28;20086;-87
2021/03/24 07:23:04;;;;;;;14.32;8.95;;;;;;;23.29;21.74;98767.09;5071587;28;20040;-87
2021/03/24 07:25:42;;;;;;;15.63;9.57;;;;;;;24.24;20.69;98774.63;5095248;28;20066;-87
2021/03/24 07:28:33;;;;;;;20.00;10.10;;;;;;;23.31;21.46;98773.09;5075151;28;20093;-87
2021/03/24 07:31:13;;;;;;;14.82;9.75;;;;;;;23.59;21.38;98775.69;5079239;28;20044;-86
2021/03/24 07:33:50;;;;;;;21.10;12.53;;;;;;;23.97;20.87;98777.28;5088063;28;20036;-86
2021/03/24 07:36:43;;;;;;;19.75;11.18;;;;;;;24.63;20.51;98776.94;5080218;28;20039;-86
2021/03/24 07:39:49;;;;;;;17.23;11.15;;;;;;;24.95;20.13;98773.75;5075577;28;20123;-87
2021/03/24 07:42:56;;;;;;;16.42;9.27;;;;;;;24.95;19.96;98780.13;5065860;28;20089;-86
2021/03/24 07:45:42;;;;;;;17.63;10.07;;;;;;;24.76;20.21;98782.81;5042456;28;20044;-87
2021/03/24 07:48:31;;;;;;;17.80;10.73;;;;;;;24.09;20.89;98778.81;5086817;28;20483;-87
2021/03/24 07:51:20;;;;;;;16.92;10.55;;;;;;;24.12;20.91;98789.19;5078659;28;20032;-87
2021/03/24 07:54:12;;;;;;;18.50;11.45;;;;;;;24.39;20.74;98789.28;5069843;28;20024;-87
2021/03/24 07:56:51;;;;;;;19.48;11.40;;;;;;;23.92;21.04;98783.34;5065004;28;20048;-87
2021/03/24 07:59:48;;;;;;;19.67;10.60;;;;;;;23.69;21.12;98785.19;5082290;28;20035;-87
2021/03/24 08:02:39;;;;;;;19.58;11.43;;;;;;;24.04;20.88;98785.63;5091471;28;20050;-87
2021/03/24 08:05:29;;;;;;;21.95;11.35;;;;;;;23.99;20.67;98793.72;5095102;28;20043;-87
2021/03/24 08:08:07;;;;;;;24.20;12.80;;;;;;;24.04;20.67;98791.25;5095420;28;20028;-87
2021/03/24 08:10:39;;;;;;;14.73;9.52;;;;;;;24.14;20.69;98792.38;5095686;28;20123;-88
2021/03/24 08:13:15;;;;;;;21.50;11.05;;;;;;;23.95;21.04;98790.94;5072875;28;20392;-87
2021/03/24 08:16:07;;;;;;;20.40;11.10;;;;;;;23.52;21.18;98784.16;5073253;28;20032;-87
2021/03/24 08:19:09;;;;;;;18.92;10.50;;;;;;;23.41;21.46;98791.06;5076355;28;20504;-87
2021/03/24 08:21:53;;;;;;;17.75;10.32;;;;;;;23.17;21.74;98790.00;5086062;28;20036;-87
2021/03/24 08:24:41;;;;;;;18.10;9.45;;;;;;;22.78;22.18;98792.25;5084007;28;20123;-87
2021/03/24 08:27:18;;;;;;;19.95;11.27;;;;;;;23.80;21.24;98786.69;5076287;28;20035;-87
2021/03/24 08:29:53;;;;;;;18.67;10.07;;;;;;;23.93;20.98;98784.97;5088974;28;20036;-88
2021/03/24 08:32:38;;;;;;;18.60;8.90;;;;;;;24.63;20.15;98791.00;5091033;28;20020;-88
2021/03/24 08:35:19;;;;;;;16.92;10.18;;;;;;;24.32;20.16;98797.81;5095653;28;20036;-87
2021/03/24 08:38:01;;;;;;;20.00;10.75;;;;;;;24.82;19.83;98793.19;5091461;28;20028;-88
2021/03/24 08:41:06;;;;;;;16.10;7.97;;;;;;;25.28;19.85;98792.50;5080535;28;20039;-88
2021/03/24 08:43:51;;;;;;;22.30;10.43;;;;;;;25.57;19.19;98795.69;5091064;28;20503;-88
2021/03/24 08:46:36;;;;;;;16.70;9.98;;;;;;;25.07;19.52;98788.00;5079231;28;20043;-88
2021/03/24 08:49:12;;;;;;;16.10;8.98;;;;;;;25.25;19.54;98788.53;5080686;28;20111;-88
2021/03/24 08:51:55;;;;;;;16.92;9.73;;;;;;;25.28;19.40;98790.50;5094559;28;20032;-88
2021/03/24 08:54:59;;;;;;;14.98;8.80;;;;;;;25.00;19.77;98784.50;5094710;28;20086;-87
2021/03/24 08:58:02;;;;;;;21.10;9.10;;;;;;;25.18;19.54;98785.81;5090001;28;20530;-88
2021/03/24 09:00:34;;;;;;;18.05;10.35;;;;;;;25.17;19.47;98787.06;5090195;28;20490;-88
2021/03/24 09:03:25;;;;;;;15.02;9.13;;;;;;;25.12;19.51;98784.72;5089485;28;20115;-88
2021/03/24 09:06:00;;;;;;;15.68;9.45;;;;;;;25.32;19.16;98779.97;5074572;28;20146;-88
2021/03/24 09:08:35;;;;;;;19.23;8.48;;;;;;;25.10;19.83;98783.53;5077762;28;20071;-88
2021/03/24 09:11:26;;;;;;;16.35;9.95;;;;;;;24.56;19.87;98777.84;5078249;28;20068;-88
2021/03/24 09:14:26;;;;;;;17.20;9.82;;;;;;;24.35;20.50;98780.09;5089818;28;20075;-88
2021/03/24 09:17:25;;;;;;;16.48;8.45;;;;;;;24.33;20.23;98780.53;5093977;28;20115;-88
2021/03/24 09:20:33;;;;;;;15.00;8.82;;;;;;;24.33;20.23;98788.97;5078762;28;20032;-88
2021/03/24 09:23:39;;;;;;;14.05;8.02;;;;;;;24.25;20.24;98787.44;5084380;28;20028;-88
2021/03/24 09:26:20;;;;;;;14.95;8.10;;;;;;;25.06;19.44;98786.41;5073950;28;20037;-87
2021/03/24 09:29:06;;;;;;;;;;;;;;;25.27;19.12;98791.72;5082696;28;20032;-88
2021/03/24 09:32:10;;;;;;;13.73;6.85;;;;;;;25.64;19.04;98787.94;5087465;28;20012;-88
2021/03/24 09:34:54;;;;;;;10.18;6.13;;;;;;;26.26;18.33;98778.75;5083538;28;20032;-88
2021/03/24 09:37:43;;;;;;;15.32;6.68;;;;;;;26.65;18.07;98778.75;5085398;28;20089;-88
2021/03/24 09:40:24;;;;;;;11.00;7.13;;;;;;;27.28;17.37;98778.59;5066992;28;20028;-88
2021/03/24 09:42:52;;;;;;;;;;;;;;;27.42;17.04;98774.66;5070921;28;20032;-88
2021/03/24 09:45:23;;;;;;;9.23;5.82;;;;;;;27.63;16.95;98780.56;5087375;28;20016;-88
2021/03/24 09:48:03;;;;;;;14.07;6.03;;;;;;;27.28;17.45;98778.59;5084544;28;20032;-88
2021/03/24 09:51:05;;;;;;;13.30;7.10;;;;;;;27.50;17.31;98771.22;5082823;28;20032;-88
2021/03/24 09:53:36;;;;;;;11.13;6.55;;;;;;;27.91;16.74;98776.97;5086889;28;20456;-88
2021/03/24 09:56:14;;;;;;;14.88;7.60;;;;;;;27.22;17.07;98771.88;5085039;28;20068;-88
2021/03/24 09:59:01;;;;;;;10.95;6.47;;;;;;;26.02;18.66;98765.94;5080599;28;20039;-87
2021/03/24 10:01:54;;;;;;;15.18;6.07;;;;;;;26.70;18.12;98766.97;5080171;28;20731;-88
2021/03/24 10:04:45;;;;;;;13.38;6.82;;;;;;;27.10;17.85;98766.91;5057085;28;20063;-88
2021/03/24 10:07:28;;;;;;;13.88;7.00;;;;;;;27.50;17.60;98770.41;5073634;28;20032;-88
2021/03/24 10:10:11;;;;;;;16.17;6.50;;;;;;;27.80;17.40;98772.84;5059510;28;20036;-88
2021/03/24 10:13:06;;;;;;;11.15;7.30;;;;;;;27.84;17.53;98776.41;5065451;28;20111;-88
2021/03/24 10:16:08;;;;;;;13.00;6.47;;;;;;;27.84;17.17;98779.22;5031426;28;20146;-88
2021/03/24 10:19:00;;;;;;;12.20;6.50;;;;;;;27.98;16.99;98767.56;5063032;28;20397;-88
2021/03/24 10:21:36;;;;;;;13.32;7.13;;;;;;;28.29;17.11;98776.41;5041652;28;20120;-89
2021/03/24 10:24:14;;;;;;;13.77;7.82;;;;;;;28.42;16.90;98771.59;5071255;28;20032;-88
2021/03/24 10:26:45;;;;;;;14.85;8.20;;;;;;;28.43;16.41;98773.16;5070259;28;20020;-88
2021/03/24 10:29:16;;;;;;;15.85;7.97;;;;;;;28.16;16.84;98767.88;5067727;28;20496;-88
2021/03/24 10:31:47;;;;;;;18.75;8.43;;;;;;;22.17;21.99;98776.88;5071456;28;20038;-88
2021/03/24 10:34:16;;;;;;;14.15;7.72;;;;;;;21.16;24.15;98771.78;5067999;28;20033;-86
2021/03/24 10:36:54;;;;;;;13.20;8.73;;;;;;;19.67;26.50;98777.09;5067407;28;20036;-88
2021/03/24 10:39:33;;;;;;;10.85;5.72;;;;;;;20.94;25.04;98784.06;5070845;28;20032;-88
2021/03/24 10:42:28;;;;;;;15.40;8.18;;;;;;;18.45;27.49;98772.72;5073165;28;20068;-87
2021/03/24 10:44:56;;;;;;;11.68;7.22;;;;;;;18.79;27.77;98771.53;5062560;28;20076;-87
2021/03/24 10:47:40;;;;;;;18.13;9.57;;;;;;;16.50;31.12;98781.88;5067010;28;20047;-88
2021/03/24 10:50:41;;;;;;;13.82;7.15;;;;;;;19.62;26.78;98772.69;5061988;28;20075;-88
2021/03/24 10:53:20;;;;;;;15.45;9.02;;;;;;;19.22;26.90;98778.31;5060744;28;20086;-87
2021/03/24 10:56:05;;;;;;;14.82;7.70;;;;;;;18.84;27.66;98784.28;5066007;28;20048;-87
2021/03/24 10:58:46;;;;;;;15.45;8.60;;;;;;;18.04;28.28;98774.56;5058555;28;20120;-88
2021/03/24 11:01:30;;;;;;;20.63;9.07;;;;;;;17.17;29.99;98769.28;5052992;28;20044;-88
2021/03/24 11:04:03;;;;;;;16.45;8.77;;;;;;;17.77;29.76;98773.00;5067206;28;20022;-88
2021/03/24 11:06:36;;;;;;;18.98;9.82;;;;;;;18.16;28.56;98768.78;5069446;28;20144;-88
2021/03/24 11:09:07;;;;;;;17.10;7.45;;;;;;;19.47;27.39;98768.19;5062224;28;20032;-87
2021/03/24 11:11:35;;;;;;;;;;;;;;;20.94;24.65;98772.91;5061444;28;20041;-88
2021/03/24 11:14:16;;;;;;;13.50;7.38;;;;;;;21.65;23.90;98762.59;5041584;28;20007;-88
2021/03/24 11:16:58;;;;;;;15.02;8.13;;;;;;;20.27;25.34;98764.34;5068533;28;20047;-88
2021/03/24 11:19:39;;;;;;;13.10;6.90;;;;;;;19.10;26.94;98773.03;5057123;28;20025;-87
2021/03/24 11:22:14;;;;;;;;;;;;;;;18.00;28.84;98768.19;5058197;28;20057;-87
2021/03/24 11:25:14;;;;;;;17.20;9.02;;;;;;;17.16;29.96;98757.38;5070683;28;19916;-87
2021/03/24 11:27:43;;;;;;;11.35;7.13;;;;;;;18.47;28.33;98768.41;5051717;28;20479;-87
2021/03/24 11:30:45;;;;;;;13.57;6.90;;;;;;;19.10;26.93;98764.69;5067798;28;20074;-87
2021/03/24 11:33:30;;;;;;;15.80;9.10;;;;;;;19.46;26.84;98755.47;5019762;28;20412;-86
2021/03/24 11:36:21;;;;;;;10.38;5.38;;;;;;;21.90;23.19;98751.38;5053807;28;20025;-87
2021/03/24 11:38:58;;;;;;;17.48;8.18;;;;;;;21.71;23.46;98747.00;5056162;28;20061;-87
2021/03/24 11:41:27;;;;;;;19.50;9.05;;;;;;;18.90;26.99;98754.97;5055672;28;20052;-87
2021/03/24 11:44:05;;;;;;;17.02;7.40;;;;;;;17.95;28.51;98749.84;5056708;28;20033;-87
2021/03/24 11:46:38;;;;;;;18.02;9.50;;;;;;;17.74;29.07;98752.34;5062576;28;20498;-87
2021/03/24 11:49:26;;;;;;;19.63;10.15;;;;;;;16.88;30.12;98758.84;5058005;28;20040;-87
2021/03/24 11:52:35;;;;;;;18.92;9.18;;;;;;;17.74;28.80;98765.41;5064984;28;20111;-87
2021/03/24 11:55:06;;;;;;;20.77;8.38;;;;;;;19.02;27.54;98752.69;5071260;28;20508;-88
2021/03/24 11:58:00;;;;;;;13.27;6.03;;;;;;;21.67;23.81;98748.19;5068529;28;20040;-87
2021/03/24 12:00:47;;;;;;;12.73;5.63;;;;;;;22.63;22.32;98741.94;5053296;28;20079;-87
2021/03/24 12:03:44;;;;;;;11.98;6.00;;;;;;;23.88;20.58;98743.34;5054817;28;20056;-87
2021/03/24 12:06:54;;;;;;;19.13;8.57;;;;;;;21.27;23.52;98741.84;5062440;28;20062;-87
2021/03/24 12:09:30;;;;;;;20.13;8.13;;;;;;;20.29;24.78;98750.00;5042734;28;20044;-88
2021/03/24 12:12:14;;;;;;;14.75;7.07;;;;;;;22.80;21.99;98747.84;5067212;28;20127;-88
2021/03/24 12:14:43;;;;;;;18.35;9.18;;;;;;;20.89;23.96;98742.59;5084132;28;20035;-88
2021/03/24 12:17:31;;;;;;;20.30;9.63;;;;;;;20.76;23.83;98744.16;5077382;28;20033;-88
2021/03/24 12:20:14;;;;;;;10.27;5.75;;;;;;;22.69;22.03;98742.28;5063561;28;20078;-88
2021/03/24 12:22:57;;;;;;;15.68;7.38;;;;;;;23.00;21.74;98741.28;5071034;28;20090;-88